sensor_id;sensor_type;location;lat;lon;timestamp;P1;durP1;ratioP1;P2;durP2;ratioP2
21505;SDS011;10914;48.886;9.394;2023-04-16T00:00:41;50.80;;;46.67;;
21505;SDS011;10914;48.886;9.394;2023-04-16T00:03:07;49.22;;;45.22;;
21505;SDS011;10914;48.886;9.394;2023-04-16T00:05:32;53.22;;;48.40;;
21505;SDS011;10914;48.886;9.394;2023-04-16T00:07:57;55.05;;;50.15;;
21505;SDS011;10914;48.886;9.394;2023-04-16T00:10:22;49.60;;;45.13;;
21505;SDS011;10914;48.886;9.394;2023-04-16T00:12:47;51.85;;;47.25;;
21505;SDS011;10914;48.886;9.394;2023-04-16T00:15:13;59.50;;;54.38;;
21505;SDS011;10914;48.886;9.394;2023-04-16T00:17:38;50.78;;;46.75;;
21505;SDS011;10914;48.886;9.394;2023-04-16T00:20:03;54.35;;;49.47;;
21505;SDS011;10914;48.886;9.394;2023-04-16T00:22:29;49.03;;;44.92;;
21505;SDS011;10914;48.886;9.394;2023-04-16T00:24:54;57.50;;;52.70;;
21505;SDS011;10914;48.886;9.394;2023-04-16T00:27:20;53.20;;;48.67;;
21505;SDS011;10914;48.886;9.394;2023-04-16T00:29:45;53.17;;;48.58;;
21505;SDS011;10914;48.886;9.394;2023-04-16T00:32:10;53.17;;;48.67;;
21505;SDS011;10914;48.886;9.394;2023-04-16T00:34:35;54.13;;;49.17;;
21505;SDS011;10914;48.886;9.394;2023-04-16T00:37:01;52.33;;;47.97;;
21505;SDS011;10914;48.886;9.394;2023-04-16T00:39:26;50.55;;;46.35;;
21505;SDS011;10914;48.886;9.394;2023-04-16T00:41:51;53.37;;;48.37;;
21505;SDS011;10914;48.886;9.394;2023-04-16T00:44:16;52.50;;;48.20;;
21505;SDS011;10914;48.886;9.394;2023-04-16T00:46:41;52.03;;;47.77;;
21505;SDS011;10914;48.886;9.394;2023-04-16T00:49:07;52.97;;;48.25;;
21505;SDS011;10914;48.886;9.394;2023-04-16T00:51:32;51.95;;;47.35;;
21505;SDS011;10914;48.886;9.394;2023-04-16T00:53:59;52.00;;;47.60;;
21505;SDS011;10914;48.886;9.394;2023-04-16T00:56:24;51.03;;;46.70;;
21505;SDS011;10914;48.886;9.394;2023-04-16T00:58:49;53.73;;;48.83;;
21505;SDS011;10914;48.886;9.394;2023-04-16T01:01:15;57.30;;;52.63;;
21505;SDS011;10914;48.886;9.394;2023-04-16T01:03:44;53.08;;;48.55;;
21505;SDS011;10914;48.886;9.394;2023-04-16T01:06:10;54.35;;;49.78;;
21505;SDS011;10914;48.886;9.394;2023-04-16T01:08:35;52.45;;;48.15;;
21505;SDS011;10914;48.886;9.394;2023-04-16T01:11:01;47.58;;;43.88;;
21505;SDS011;10914;48.886;9.394;2023-04-16T01:13:26;54.30;;;49.92;;
21505;SDS011;10914;48.886;9.394;2023-04-16T01:15:51;49.10;;;45.20;;
21505;SDS011;10914;48.886;9.394;2023-04-16T01:18:17;54.72;;;49.92;;
21505;SDS011;10914;48.886;9.394;2023-04-16T01:20:43;50.58;;;46.30;;
21505;SDS011;10914;48.886;9.394;2023-04-16T01:23:08;45.53;;;41.85;;
21505;SDS011;10914;48.886;9.394;2023-04-16T01:25:34;50.58;;;46.28;;
21505;SDS011;10914;48.886;9.394;2023-04-16T01:27:59;47.25;;;43.42;;
21505;SDS011;10914;48.886;9.394;2023-04-16T01:30:24;49.43;;;45.33;;
21505;SDS011;10914;48.886;9.394;2023-04-16T01:32:50;50.15;;;45.80;;
21505;SDS011;10914;48.886;9.394;2023-04-16T01:35:15;46.40;;;42.78;;
21505;SDS011;10914;48.886;9.394;2023-04-16T01:37:42;43.28;;;39.97;;
21505;SDS011;10914;48.886;9.394;2023-04-16T01:40:07;47.53;;;43.83;;
21505;SDS011;10914;48.886;9.394;2023-04-16T01:42:32;44.25;;;40.78;;
21505;SDS011;10914;48.886;9.394;2023-04-16T01:44:57;45.58;;;41.83;;
21505;SDS011;10914;48.886;9.394;2023-04-16T01:47:23;43.00;;;39.70;;
21505;SDS011;10914;48.886;9.394;2023-04-16T01:49:48;44.38;;;40.88;;
21505;SDS011;10914;48.886;9.394;2023-04-16T01:52:13;44.30;;;40.72;;
21505;SDS011;10914;48.886;9.394;2023-04-16T01:54:38;45.15;;;41.42;;
21505;SDS011;10914;48.886;9.394;2023-04-16T01:57:03;44.00;;;40.77;;
21505;SDS011;10914;48.886;9.394;2023-04-16T01:59:29;44.63;;;40.85;;
21505;SDS011;10914;48.886;9.394;2023-04-16T02:01:54;43.97;;;40.63;;
21505;SDS011;10914;48.886;9.394;2023-04-16T02:04:20;46.35;;;42.72;;
21505;SDS011;10914;48.886;9.394;2023-04-16T02:06:45;46.25;;;42.45;;
21505;SDS011;10914;48.886;9.394;2023-04-16T02:09:11;43.97;;;40.58;;
21505;SDS011;10914;48.886;9.394;2023-04-16T02:11:36;42.77;;;39.27;;
21505;SDS011;10914;48.886;9.394;2023-04-16T02:14:01;45.47;;;41.78;;
21505;SDS011;10914;48.886;9.394;2023-04-16T02:16:26;44.63;;;41.25;;
21505;SDS011;10914;48.886;9.394;2023-04-16T02:18:52;43.58;;;40.40;;
21505;SDS011;10914;48.886;9.394;2023-04-16T02:21:17;42.77;;;39.67;;
21505;SDS011;10914;48.886;9.394;2023-04-16T02:23:42;43.55;;;40.00;;
21505;SDS011;10914;48.886;9.394;2023-04-16T02:26:11;46.60;;;42.67;;
21505;SDS011;10914;48.886;9.394;2023-04-16T02:28:37;47.55;;;43.55;;
21505;SDS011;10914;48.886;9.394;2023-04-16T02:31:02;41.85;;;38.55;;
21505;SDS011;10914;48.886;9.394;2023-04-16T02:33:27;44.43;;;40.83;;
21505;SDS011;10914;48.886;9.394;2023-04-16T02:35:53;42.20;;;39.10;;
21505;SDS011;10914;48.886;9.394;2023-04-16T02:38:18;44.58;;;40.95;;
21505;SDS011;10914;48.886;9.394;2023-04-16T02:40:43;45.17;;;41.47;;
21505;SDS011;10914;48.886;9.394;2023-04-16T02:43:08;44.33;;;40.87;;
21505;SDS011;10914;48.886;9.394;2023-04-16T02:45:34;44.10;;;40.70;;
21505;SDS011;10914;48.886;9.394;2023-04-16T02:47:59;46.45;;;42.72;;
21505;SDS011;10914;48.886;9.394;2023-04-16T02:50:24;47.10;;;43.13;;
21505;SDS011;10914;48.886;9.394;2023-04-16T02:52:50;44.85;;;40.95;;
21505;SDS011;10914;48.886;9.394;2023-04-16T02:55:16;43.58;;;40.03;;
21505;SDS011;10914;48.886;9.394;2023-04-16T02:57:41;45.53;;;41.97;;
21505;SDS011;10914;48.886;9.394;2023-04-16T03:00:06;45.28;;;41.70;;
21505;SDS011;10914;48.886;9.394;2023-04-16T03:02:32;43.55;;;40.25;;
21505;SDS011;10914;48.886;9.394;2023-04-16T03:04:57;44.20;;;40.88;;
21505;SDS011;10914;48.886;9.394;2023-04-16T03:07:22;44.38;;;40.83;;
21505;SDS011;10914;48.886;9.394;2023-04-16T03:09:47;45.13;;;41.63;;
21505;SDS011;10914;48.886;9.394;2023-04-16T03:12:12;44.03;;;40.43;;
21505;SDS011;10914;48.886;9.394;2023-04-16T03:14:38;42.85;;;39.58;;
21505;SDS011;10914;48.886;9.394;2023-04-16T03:17:03;44.78;;;41.47;;
21505;SDS011;10914;48.886;9.394;2023-04-16T03:19:28;47.13;;;43.10;;
21505;SDS011;10914;48.886;9.394;2023-04-16T03:21:53;47.72;;;43.83;;
21505;SDS011;10914;48.886;9.394;2023-04-16T03:24:19;50.08;;;46.00;;
21505;SDS011;10914;48.886;9.394;2023-04-16T03:26:44;50.65;;;46.50;;
21505;SDS011;10914;48.886;9.394;2023-04-16T03:29:09;49.28;;;44.92;;
21505;SDS011;10914;48.886;9.394;2023-04-16T03:31:35;48.55;;;44.05;;
21505;SDS011;10914;48.886;9.394;2023-04-16T03:34:00;47.47;;;43.53;;
21505;SDS011;10914;48.886;9.394;2023-04-16T03:36:25;46.87;;;42.87;;
21505;SDS011;10914;48.886;9.394;2023-04-16T03:38:51;50.55;;;46.03;;
21505;SDS011;10914;48.886;9.394;2023-04-16T03:41:16;51.55;;;47.05;;
21505;SDS011;10914;48.886;9.394;2023-04-16T03:43:41;50.58;;;46.28;;
21505;SDS011;10914;48.886;9.394;2023-04-16T03:46:06;52.78;;;48.33;;
21505;SDS011;10914;48.886;9.394;2023-04-16T03:48:32;52.33;;;47.63;;
21505;SDS011;10914;48.886;9.394;2023-04-16T03:50:57;52.80;;;48.10;;
21505;SDS011;10914;48.886;9.394;2023-04-16T03:53:22;54.55;;;49.70;;
21505;SDS011;10914;48.886;9.394;2023-04-16T03:55:50;58.97;;;53.97;;
21505;SDS011;10914;48.886;9.394;2023-04-16T03:58:16;59.70;;;55.15;;
21505;SDS011;10914;48.886;9.394;2023-04-16T04:00:42;53.33;;;49.28;;
21505;SDS011;10914;48.886;9.394;2023-04-16T04:03:08;51.65;;;47.35;;
21505;SDS011;10914;48.886;9.394;2023-04-16T04:05:37;53.38;;;49.08;;
21505;SDS011;10914;48.886;9.394;2023-04-16T04:08:03;100.78;;;93.57;;
21505;SDS011;10914;48.886;9.394;2023-04-16T04:10:30;101.05;;;94.18;;
21505;SDS011;10914;48.886;9.394;2023-04-16T04:12:55;90.47;;;83.85;;
21505;SDS011;10914;48.886;9.394;2023-04-16T04:15:20;55.70;;;51.33;;
21505;SDS011;10914;48.886;9.394;2023-04-16T04:17:45;54.07;;;49.77;;
21505;SDS011;10914;48.886;9.394;2023-04-16T04:20:11;54.72;;;50.38;;
21505;SDS011;10914;48.886;9.394;2023-04-16T04:22:36;50.70;;;46.45;;
21505;SDS011;10914;48.886;9.394;2023-04-16T04:25:01;52.65;;;48.08;;
21505;SDS011;10914;48.886;9.394;2023-04-16T04:27:26;52.88;;;48.22;;
21505;SDS011;10914;48.886;9.394;2023-04-16T04:29:52;54.47;;;49.92;;
21505;SDS011;10914;48.886;9.394;2023-04-16T04:32:17;55.13;;;50.83;;
21505;SDS011;10914;48.886;9.394;2023-04-16T04:34:42;56.33;;;51.70;;
21505;SDS011;10914;48.886;9.394;2023-04-16T04:37:07;51.67;;;47.27;;
21505;SDS011;10914;48.886;9.394;2023-04-16T04:39:32;53.30;;;48.88;;
21505;SDS011;10914;48.886;9.394;2023-04-16T04:41:57;52.45;;;47.75;;
21505;SDS011;10914;48.886;9.394;2023-04-16T04:44:23;52.25;;;47.97;;
21505;SDS011;10914;48.886;9.394;2023-04-16T04:46:48;56.03;;;50.70;;
21505;SDS011;10914;48.886;9.394;2023-04-16T04:49:13;55.95;;;50.72;;
21505;SDS011;10914;48.886;9.394;2023-04-16T04:51:38;47.88;;;43.78;;
21505;SDS011;10914;48.886;9.394;2023-04-16T04:54:04;50.33;;;46.00;;
21505;SDS011;10914;48.886;9.394;2023-04-16T04:56:29;49.85;;;45.28;;
21505;SDS011;10914;48.886;9.394;2023-04-16T04:58:54;49.72;;;45.53;;
21505;SDS011;10914;48.886;9.394;2023-04-16T05:01:20;51.13;;;46.60;;
21505;SDS011;10914;48.886;9.394;2023-04-16T05:03:45;47.65;;;43.65;;
21505;SDS011;10914;48.886;9.394;2023-04-16T05:06:10;53.85;;;48.78;;
21505;SDS011;10914;48.886;9.394;2023-04-16T05:08:36;51.33;;;46.97;;
21505;SDS011;10914;48.886;9.394;2023-04-16T05:11:01;52.47;;;48.23;;
21505;SDS011;10914;48.886;9.394;2023-04-16T05:13:26;52.47;;;47.97;;
21505;SDS011;10914;48.886;9.394;2023-04-16T05:15:51;50.77;;;45.93;;
21505;SDS011;10914;48.886;9.394;2023-04-16T05:18:16;50.40;;;46.10;;
21505;SDS011;10914;48.886;9.394;2023-04-16T05:20:41;50.70;;;46.30;;
21505;SDS011;10914;48.886;9.394;2023-04-16T05:23:07;52.00;;;47.53;;
21505;SDS011;10914;48.886;9.394;2023-04-16T05:25:32;55.40;;;50.77;;
21505;SDS011;10914;48.886;9.394;2023-04-16T05:27:57;53.50;;;48.75;;
21505;SDS011;10914;48.886;9.394;2023-04-16T05:30:22;56.27;;;50.90;;
21505;SDS011;10914;48.886;9.394;2023-04-16T05:32:47;54.53;;;49.57;;
21505;SDS011;10914;48.886;9.394;2023-04-16T05:35:13;56.25;;;51.38;;
21505;SDS011;10914;48.886;9.394;2023-04-16T05:37:38;57.03;;;52.08;;
21505;SDS011;10914;48.886;9.394;2023-04-16T05:40:04;57.10;;;51.93;;
21505;SDS011;10914;48.886;9.394;2023-04-16T05:42:29;56.30;;;50.85;;
21505;SDS011;10914;48.886;9.394;2023-04-16T05:44:54;55.57;;;50.10;;
21505;SDS011;10914;48.886;9.394;2023-04-16T05:47:20;57.00;;;51.55;;
21505;SDS011;10914;48.886;9.394;2023-04-16T05:49:45;54.90;;;49.88;;
21505;SDS011;10914;48.886;9.394;2023-04-16T05:52:10;59.90;;;54.20;;
21505;SDS011;10914;48.886;9.394;2023-04-16T05:54:35;59.13;;;53.33;;
21505;SDS011;10914;48.886;9.394;2023-04-16T05:57:00;53.35;;;48.58;;
21505;SDS011;10914;48.886;9.394;2023-04-16T05:59:26;54.95;;;49.83;;
21505;SDS011;10914;48.886;9.394;2023-04-16T06:01:51;56.97;;;51.58;;
21505;SDS011;10914;48.886;9.394;2023-04-16T06:04:16;55.97;;;50.50;;
21505;SDS011;10914;48.886;9.394;2023-04-16T06:06:41;59.45;;;53.60;;
21505;SDS011;10914;48.886;9.394;2023-04-16T06:09:07;57.80;;;52.15;;
21505;SDS011;10914;48.886;9.394;2023-04-16T06:11:32;54.50;;;49.25;;
21505;SDS011;10914;48.886;9.394;2023-04-16T06:13:57;53.50;;;48.20;;
21505;SDS011;10914;48.886;9.394;2023-04-16T06:16:22;54.65;;;49.22;;
21505;SDS011;10914;48.886;9.394;2023-04-16T06:18:48;54.03;;;48.30;;
21505;SDS011;10914;48.886;9.394;2023-04-16T06:21:13;56.15;;;50.72;;
21505;SDS011;10914;48.886;9.394;2023-04-16T06:23:38;56.33;;;50.78;;
21505;SDS011;10914;48.886;9.394;2023-04-16T06:26:04;59.47;;;52.97;;
21505;SDS011;10914;48.886;9.394;2023-04-16T06:28:29;56.70;;;51.08;;
21505;SDS011;10914;48.886;9.394;2023-04-16T06:30:54;56.85;;;51.63;;
21505;SDS011;10914;48.886;9.394;2023-04-16T06:33:20;62.65;;;56.15;;
21505;SDS011;10914;48.886;9.394;2023-04-16T06:35:45;64.40;;;58.42;;
21505;SDS011;10914;48.886;9.394;2023-04-16T06:38:10;60.55;;;54.55;;
21505;SDS011;10914;48.886;9.394;2023-04-16T06:40:35;70.22;;;63.45;;
21505;SDS011;10914;48.886;9.394;2023-04-16T06:43:01;61.85;;;55.65;;
21505;SDS011;10914;48.886;9.394;2023-04-16T06:45:27;58.53;;;52.58;;
21505;SDS011;10914;48.886;9.394;2023-04-16T06:47:52;60.92;;;55.38;;
21505;SDS011;10914;48.886;9.394;2023-04-16T06:50:17;57.42;;;51.45;;
21505;SDS011;10914;48.886;9.394;2023-04-16T06:52:42;59.63;;;53.80;;
21505;SDS011;10914;48.886;9.394;2023-04-16T06:55:08;57.40;;;51.75;;
21505;SDS011;10914;48.886;9.394;2023-04-16T06:57:34;57.65;;;51.88;;
21505;SDS011;10914;48.886;9.394;2023-04-16T06:59:59;59.30;;;53.50;;
21505;SDS011;10914;48.886;9.394;2023-04-16T07:02:24;56.92;;;51.20;;
21505;SDS011;10914;48.886;9.394;2023-04-16T07:04:50;55.30;;;49.65;;
21505;SDS011;10914;48.886;9.394;2023-04-16T07:07:16;56.15;;;50.58;;
21505;SDS011;10914;48.886;9.394;2023-04-16T07:09:41;54.13;;;48.50;;
21505;SDS011;10914;48.886;9.394;2023-04-16T07:12:06;54.67;;;48.92;;
21505;SDS011;10914;48.886;9.394;2023-04-16T07:14:32;54.38;;;48.67;;
21505;SDS011;10914;48.886;9.394;2023-04-16T07:16:57;55.67;;;49.75;;
21505;SDS011;10914;48.886;9.394;2023-04-16T07:19:22;52.47;;;46.87;;
21505;SDS011;10914;48.886;9.394;2023-04-16T07:21:47;52.20;;;46.80;;
21505;SDS011;10914;48.886;9.394;2023-04-16T07:24:13;50.33;;;45.38;;
21505;SDS011;10914;48.886;9.394;2023-04-16T07:26:38;54.92;;;48.83;;
21505;SDS011;10914;48.886;9.394;2023-04-16T07:29:03;52.33;;;47.03;;
21505;SDS011;10914;48.886;9.394;2023-04-16T07:31:28;57.42;;;52.00;;
21505;SDS011;10914;48.886;9.394;2023-04-16T07:33:53;50.45;;;45.55;;
21505;SDS011;10914;48.886;9.394;2023-04-16T07:36:19;56.72;;;51.15;;
21505;SDS011;10914;48.886;9.394;2023-04-16T07:38:44;48.28;;;43.63;;
21505;SDS011;10914;48.886;9.394;2023-04-16T07:41:09;50.40;;;45.57;;
21505;SDS011;10914;48.886;9.394;2023-04-16T07:43:35;51.17;;;46.30;;
21505;SDS011;10914;48.886;9.394;2023-04-16T07:46:00;48.35;;;43.83;;
21505;SDS011;10914;48.886;9.394;2023-04-16T07:48:25;48.38;;;43.35;;
21505;SDS011;10914;48.886;9.394;2023-04-16T07:50:51;49.37;;;44.43;;
21505;SDS011;10914;48.886;9.394;2023-04-16T07:53:16;50.13;;;45.13;;
21505;SDS011;10914;48.886;9.394;2023-04-16T07:55:41;49.37;;;44.37;;
21505;SDS011;10914;48.886;9.394;2023-04-16T07:58:06;48.72;;;43.90;;
21505;SDS011;10914;48.886;9.394;2023-04-16T08:00:33;51.55;;;46.40;;
21505;SDS011;10914;48.886;9.394;2023-04-16T08:02:58;49.55;;;44.45;;
21505;SDS011;10914;48.886;9.394;2023-04-16T08:05:24;49.78;;;44.97;;
21505;SDS011;10914;48.886;9.394;2023-04-16T08:07:49;48.83;;;43.88;;
21505;SDS011;10914;48.886;9.394;2023-04-16T08:10:14;49.90;;;45.00;;
21505;SDS011;10914;48.886;9.394;2023-04-16T08:12:40;50.88;;;45.80;;
21505;SDS011;10914;48.886;9.394;2023-04-16T08:15:05;48.25;;;43.67;;
21505;SDS011;10914;48.886;9.394;2023-04-16T08:17:31;52.00;;;46.55;;
21505;SDS011;10914;48.886;9.394;2023-04-16T08:19:58;49.40;;;44.50;;
21505;SDS011;10914;48.886;9.394;2023-04-16T08:22:23;47.97;;;43.37;;
21505;SDS011;10914;48.886;9.394;2023-04-16T08:24:48;45.10;;;40.70;;
21505;SDS011;10914;48.886;9.394;2023-04-16T08:27:13;47.33;;;42.70;;
21505;SDS011;10914;48.886;9.394;2023-04-16T08:29:39;48.33;;;43.53;;
21505;SDS011;10914;48.886;9.394;2023-04-16T08:32:04;49.17;;;44.38;;
21505;SDS011;10914;48.886;9.394;2023-04-16T08:34:30;50.47;;;45.50;;
21505;SDS011;10914;48.886;9.394;2023-04-16T08:36:55;46.72;;;42.50;;
21505;SDS011;10914;48.886;9.394;2023-04-16T08:39:20;45.47;;;41.13;;
21505;SDS011;10914;48.886;9.394;2023-04-16T08:41:45;46.80;;;42.27;;
21505;SDS011;10914;48.886;9.394;2023-04-16T08:44:24;44.53;;;40.35;;
21505;SDS011;10914;48.886;9.394;2023-04-16T08:46:50;44.00;;;39.85;;
21505;SDS011;10914;48.886;9.394;2023-04-16T08:49:18;44.10;;;40.28;;
21505;SDS011;10914;48.886;9.394;2023-04-16T08:51:44;44.20;;;40.00;;
21505;SDS011;10914;48.886;9.394;2023-04-16T08:54:13;45.35;;;41.05;;
21505;SDS011;10914;48.886;9.394;2023-04-16T08:56:40;45.70;;;41.42;;
21505;SDS011;10914;48.886;9.394;2023-04-16T08:59:05;44.22;;;40.17;;
21505;SDS011;10914;48.886;9.394;2023-04-16T09:01:31;46.40;;;42.20;;
21505;SDS011;10914;48.886;9.394;2023-04-16T09:03:56;49.03;;;44.85;;
21505;SDS011;10914;48.886;9.394;2023-04-16T09:06:22;42.88;;;39.28;;
21505;SDS011;10914;48.886;9.394;2023-04-16T09:08:48;45.70;;;41.70;;
21505;SDS011;10914;48.886;9.394;2023-04-16T09:11:14;49.80;;;45.80;;
21505;SDS011;10914;48.886;9.394;2023-04-16T09:13:41;49.17;;;44.83;;
21505;SDS011;10914;48.886;9.394;2023-04-16T09:16:06;44.00;;;40.20;;
21505;SDS011;10914;48.886;9.394;2023-04-16T09:18:32;47.28;;;43.03;;
21505;SDS011;10914;48.886;9.394;2023-04-16T09:20:58;44.03;;;40.03;;
21505;SDS011;10914;48.886;9.394;2023-04-16T09:23:23;46.15;;;41.80;;
21505;SDS011;10914;48.886;9.394;2023-04-16T09:25:49;79.60;;;73.70;;
21505;SDS011;10914;48.886;9.394;2023-04-16T09:28:59;42.90;;;39.28;;
21505;SDS011;10914;48.886;9.394;2023-04-16T09:31:13;46.83;;;42.83;;
21505;SDS011;10914;48.886;9.394;2023-04-16T09:33:41;43.10;;;39.47;;
21505;SDS011;10914;48.886;9.394;2023-04-16T09:36:09;46.40;;;42.25;;
21505;SDS011;10914;48.886;9.394;2023-04-16T09:38:47;47.35;;;43.42;;
21505;SDS011;10914;48.886;9.394;2023-04-16T09:41:13;46.30;;;42.10;;
21505;SDS011;10914;48.886;9.394;2023-04-16T09:44:02;44.63;;;40.47;;
21505;SDS011;10914;48.886;9.394;2023-04-16T09:46:29;44.78;;;40.65;;
21505;SDS011;10914;48.886;9.394;2023-04-16T09:48:54;46.25;;;41.88;;
21505;SDS011;10914;48.886;9.394;2023-04-16T09:51:19;44.95;;;40.90;;
21505;SDS011;10914;48.886;9.394;2023-04-16T09:53:45;45.60;;;41.45;;
21505;SDS011;10914;48.886;9.394;2023-04-16T09:56:10;45.15;;;40.95;;
21505;SDS011;10914;48.886;9.394;2023-04-16T09:58:36;45.95;;;41.35;;
21505;SDS011;10914;48.886;9.394;2023-04-16T10:01:09;45.05;;;40.95;;
21505;SDS011;10914;48.886;9.394;2023-04-16T10:03:35;45.00;;;40.78;;
21505;SDS011;10914;48.886;9.394;2023-04-16T10:06:07;43.35;;;39.25;;
21505;SDS011;10914;48.886;9.394;2023-04-16T10:08:38;44.17;;;40.10;;
21505;SDS011;10914;48.886;9.394;2023-04-16T10:11:06;45.70;;;41.30;;
21505;SDS011;10914;48.886;9.394;2023-04-16T10:13:31;44.17;;;40.13;;
21505;SDS011;10914;48.886;9.394;2023-04-16T10:15:57;42.72;;;38.90;;
21505;SDS011;10914;48.886;9.394;2023-04-16T10:18:22;44.38;;;40.22;;
21505;SDS011;10914;48.886;9.394;2023-04-16T10:20:48;46.42;;;42.17;;
21505;SDS011;10914;48.886;9.394;2023-04-16T10:23:14;44.55;;;40.45;;
21505;SDS011;10914;48.886;9.394;2023-04-16T10:25:39;46.15;;;41.85;;
21505;SDS011;10914;48.886;9.394;2023-04-16T10:28:06;42.05;;;38.28;;
21505;SDS011;10914;48.886;9.394;2023-04-16T10:30:31;44.15;;;40.03;;
21505;SDS011;10914;48.886;9.394;2023-04-16T10:32:56;43.40;;;39.10;;
21505;SDS011;10914;48.886;9.394;2023-04-16T10:35:23;45.33;;;41.08;;
21505;SDS011;10914;48.886;9.394;2023-04-16T10:37:49;45.40;;;41.13;;
21505;SDS011;10914;48.886;9.394;2023-04-16T10:40:23;45.58;;;41.28;;
21505;SDS011;10914;48.886;9.394;2023-04-16T10:42:55;46.40;;;41.78;;
21505;SDS011;10914;48.886;9.394;2023-04-16T10:45:25;45.05;;;40.78;;
21505;SDS011;10914;48.886;9.394;2023-04-16T10:47:50;44.47;;;40.33;;
21505;SDS011;10914;48.886;9.394;2023-04-16T10:50:15;43.30;;;39.45;;
21505;SDS011;10914;48.886;9.394;2023-04-16T10:52:41;46.75;;;42.22;;
21505;SDS011;10914;48.886;9.394;2023-04-16T10:55:07;45.58;;;41.38;;
21505;SDS011;10914;48.886;9.394;2023-04-16T10:57:32;52.30;;;47.72;;
21505;SDS011;10914;48.886;9.394;2023-04-16T10:59:57;47.80;;;43.53;;
21505;SDS011;10914;48.886;9.394;2023-04-16T11:02:24;46.42;;;42.15;;
21505;SDS011;10914;48.886;9.394;2023-04-16T11:04:52;46.67;;;42.35;;
21505;SDS011;10914;48.886;9.394;2023-04-16T11:07:21;43.55;;;39.65;;
21505;SDS011;10914;48.886;9.394;2023-04-16T11:09:59;44.78;;;40.92;;
21505;SDS011;10914;48.886;9.394;2023-04-16T11:12:25;44.00;;;39.88;;
21505;SDS011;10914;48.886;9.394;2023-04-16T11:14:57;42.22;;;38.40;;
21505;SDS011;10914;48.886;9.394;2023-04-16T11:17:26;40.22;;;36.63;;
21505;SDS011;10914;48.886;9.394;2023-04-16T11:19:52;42.88;;;39.05;;
21505;SDS011;10914;48.886;9.394;2023-04-16T11:22:17;43.35;;;39.42;;
21505;SDS011;10914;48.886;9.394;2023-04-16T11:24:43;41.58;;;37.92;;
21505;SDS011;10914;48.886;9.394;2023-04-16T11:27:08;41.85;;;38.20;;
21505;SDS011;10914;48.886;9.394;2023-04-16T11:29:33;40.93;;;37.23;;
21505;SDS011;10914;48.886;9.394;2023-04-16T11:32:02;41.20;;;37.50;;
21505;SDS011;10914;48.886;9.394;2023-04-16T11:34:27;39.10;;;35.80;;
21505;SDS011;10914;48.886;9.394;2023-04-16T11:36:52;41.63;;;38.38;;
21505;SDS011;10914;48.886;9.394;2023-04-16T11:39:18;40.22;;;36.53;;
21505;SDS011;10914;48.886;9.394;2023-04-16T11:41:44;40.20;;;36.95;;
21505;SDS011;10914;48.886;9.394;2023-04-16T11:44:16;42.40;;;38.92;;
21505;SDS011;10914;48.886;9.394;2023-04-16T11:46:41;41.72;;;38.25;;
21505;SDS011;10914;48.886;9.394;2023-04-16T11:49:07;42.42;;;38.72;;
21505;SDS011;10914;48.886;9.394;2023-04-16T11:51:32;42.25;;;38.85;;
21505;SDS011;10914;48.886;9.394;2023-04-16T11:53:57;36.85;;;34.00;;
21505;SDS011;10914;48.886;9.394;2023-04-16T11:56:29;40.17;;;37.15;;
21505;SDS011;10914;48.886;9.394;2023-04-16T11:59:14;44.95;;;41.10;;
21505;SDS011;10914;48.886;9.394;2023-04-16T12:01:40;42.22;;;38.92;;
21505;SDS011;10914;48.886;9.394;2023-04-16T12:04:05;37.88;;;34.88;;
21505;SDS011;10914;48.886;9.394;2023-04-16T12:06:30;39.00;;;35.88;;
21505;SDS011;10914;48.886;9.394;2023-04-16T12:08:58;37.45;;;34.53;;
21505;SDS011;10914;48.886;9.394;2023-04-16T12:11:39;34.67;;;31.88;;
21505;SDS011;10914;48.886;9.394;2023-04-16T12:14:08;35.47;;;32.80;;
21505;SDS011;10914;48.886;9.394;2023-04-16T12:16:33;36.05;;;33.35;;
21505;SDS011;10914;48.886;9.394;2023-04-16T12:18:59;36.25;;;33.75;;
21505;SDS011;10914;48.886;9.394;2023-04-16T12:21:34;35.42;;;32.92;;
21505;SDS011;10914;48.886;9.394;2023-04-16T12:23:59;38.38;;;35.67;;
21505;SDS011;10914;48.886;9.394;2023-04-16T12:26:24;35.45;;;32.85;;
21505;SDS011;10914;48.886;9.394;2023-04-16T12:28:50;38.38;;;35.45;;
21505;SDS011;10914;48.886;9.394;2023-04-16T12:31:15;37.35;;;34.53;;
21505;SDS011;10914;48.886;9.394;2023-04-16T12:33:41;36.95;;;34.10;;
21505;SDS011;10914;48.886;9.394;2023-04-16T12:36:16;35.67;;;33.20;;
21505;SDS011;10914;48.886;9.394;2023-04-16T12:38:41;35.13;;;32.65;;
21505;SDS011;10914;48.886;9.394;2023-04-16T12:41:06;36.20;;;33.60;;
21505;SDS011;10914;48.886;9.394;2023-04-16T12:43:31;41.17;;;38.50;;
21505;SDS011;10914;48.886;9.394;2023-04-16T12:45:57;38.30;;;35.70;;
21505;SDS011;10914;48.886;9.394;2023-04-16T12:48:22;34.88;;;32.30;;
21505;SDS011;10914;48.886;9.394;2023-04-16T12:50:47;34.30;;;31.90;;
21505;SDS011;10914;48.886;9.394;2023-04-16T12:53:12;35.20;;;32.70;;
21505;SDS011;10914;48.886;9.394;2023-04-16T12:55:37;39.22;;;36.55;;
21505;SDS011;10914;48.886;9.394;2023-04-16T12:58:03;37.65;;;34.85;;
21505;SDS011;10914;48.886;9.394;2023-04-16T13:00:28;35.58;;;32.95;;
21505;SDS011;10914;48.886;9.394;2023-04-16T13:02:53;37.15;;;34.50;;
21505;SDS011;10914;48.886;9.394;2023-04-16T13:05:18;33.92;;;31.40;;
21505;SDS011;10914;48.886;9.394;2023-04-16T13:07:43;40.70;;;37.67;;
21505;SDS011;10914;48.886;9.394;2023-04-16T13:10:09;36.03;;;33.38;;
21505;SDS011;10914;48.886;9.394;2023-04-16T13:12:34;40.50;;;37.70;;
21505;SDS011;10914;48.886;9.394;2023-04-16T13:15:00;34.78;;;32.35;;
21505;SDS011;10914;48.886;9.394;2023-04-16T13:17:25;37.03;;;34.22;;
21505;SDS011;10914;48.886;9.394;2023-04-16T13:19:50;36.40;;;33.90;;
21505;SDS011;10914;48.886;9.394;2023-04-16T13:22:15;38.72;;;35.92;;
21505;SDS011;10914;48.886;9.394;2023-04-16T13:24:40;37.45;;;34.65;;
21505;SDS011;10914;48.886;9.394;2023-04-16T13:27:06;38.50;;;35.67;;
21505;SDS011;10914;48.886;9.394;2023-04-16T13:29:32;38.70;;;35.95;;
21505;SDS011;10914;48.886;9.394;2023-04-16T13:31:57;40.40;;;37.28;;
21505;SDS011;10914;48.886;9.394;2023-04-16T13:34:23;37.88;;;35.20;;
21505;SDS011;10914;48.886;9.394;2023-04-16T13:36:48;35.35;;;32.85;;
21505;SDS011;10914;48.886;9.394;2023-04-16T13:39:13;36.50;;;33.92;;
21505;SDS011;10914;48.886;9.394;2023-04-16T13:41:39;37.97;;;35.35;;
21505;SDS011;10914;48.886;9.394;2023-04-16T13:44:04;39.85;;;37.00;;
21505;SDS011;10914;48.886;9.394;2023-04-16T13:46:30;40.50;;;37.60;;
21505;SDS011;10914;48.886;9.394;2023-04-16T13:48:55;37.45;;;34.88;;
21505;SDS011;10914;48.886;9.394;2023-04-16T13:51:21;39.90;;;37.10;;
21505;SDS011;10914;48.886;9.394;2023-04-16T13:53:46;38.78;;;36.08;;
21505;SDS011;10914;48.886;9.394;2023-04-16T13:56:11;40.35;;;37.45;;
21505;SDS011;10914;48.886;9.394;2023-04-16T13:58:36;40.08;;;37.28;;
21505;SDS011;10914;48.886;9.394;2023-04-16T14:01:02;37.63;;;34.65;;
21505;SDS011;10914;48.886;9.394;2023-04-16T14:03:27;37.28;;;34.47;;
21505;SDS011;10914;48.886;9.394;2023-04-16T14:05:52;36.28;;;33.53;;
21505;SDS011;10914;48.886;9.394;2023-04-16T14:08:18;41.40;;;38.58;;
21505;SDS011;10914;48.886;9.394;2023-04-16T14:10:45;37.60;;;34.70;;
21505;SDS011;10914;48.886;9.394;2023-04-16T14:13:10;38.97;;;35.90;;